Capitol Logistics 239




KMIA
Miami International Airport
Miami, Florida
TJSJ
Luis Munoz Marin International Airport
San Juan,

Activity Log

Date Flight Route Aircraft Duration
11/04/2021 CPX2141 KLADA1 BITAC HAGIT CALTO Y290 BEANO BEANO3 B762 2h 14m
08/12/2021 CPX2141 SKIPS2 SKIPS Y290 BEANO A30F 2h 24m
08/11/2021 CPX2141 SKIPS2 SKIPS Y290 BEANO A30F 2h 22m
04/13/2021 CPX2141 SKIPS2 SKIPS Y290 BEANO B763 2h 10m
09/28/2019 CPX239 SKIPS2 SKIPS Y290 BEANO B763 2h 54m
06/18/2019 CPX239 SKIPS2 SKIPS Y290 BEANO B763 2h 18m
05/26/2019 CPX239 SKIPS2 SKIPS Y290 BEANO B763 2h 20m
04/06/2019 CPX239 SKIPS2 SKIPS Y290 BEANO B763 2h 18m
02/16/2019 CPX239 SKIPS2 SKIPS Y290 BEANO BEANO3 B763 2h 14m

Route Details

Aircraft Information
Group: Boeing Common
Types: B752,B762,B763
Route Data
Demand: V
Distance: 909nm
Duration: 2h 00m
Recm'd Route: SKIPS2 SKIPS Y290 BEANO
Origin Wx: KMIA 272153Z 15008G19KT 10SM FEW035 SCT100 SCT200 BKN250 29/22 A2996 RMK AO2 LTG DSNT NW SLP146 CB DSNT NW MOV NE T02890222 $
Dest. Wx: TJSJ 272156Z 07015KT 10SM FEW034 FEW055 FEW100 28/22 A3002 RMK AO2 SLP164 T02780222
Notes:

Financial History
Total Freight: 736,908lbs
Average Load: 81,879lbs/flt
Fuel Used: 221,462lbs
Avg. Fuel Used: 24,607lbs/flt
Fuel Expense: $215,415
Avg. Fuel Expense: $23,935
Avg. Fuel Cost: $0.96/lbs
Total Gross Income: $1,251,038
Pilot Pay: $1,661
Total Expenses: $160,142
Total Revenue: $870,672
Average Revenue: $139,004.23